createdAt,value
2019-05-02T00:01:14.819Z,14.25
2019-05-02T00:03:44.281Z,13.65
2019-05-02T00:06:13.898Z,13.65
2019-05-02T00:08:43.310Z,13.75
2019-05-02T00:11:13.870Z,14.21
2019-05-02T00:13:43.324Z,13.26
2019-05-02T00:16:14.128Z,12.99
2019-05-02T00:18:45.102Z,13.21
2019-05-02T00:21:14.901Z,14.90
2019-05-02T00:23:44.280Z,13.39
2019-05-02T00:26:13.805Z,12.84
2019-05-02T00:28:48.014Z,13.58
2019-05-02T00:31:14.670Z,13.70
2019-05-02T00:33:44.142Z,13.34
2019-05-02T00:36:13.524Z,12.97
2019-05-02T00:38:43.051Z,13.17
2019-05-02T00:41:12.449Z,12.87
2019-05-02T00:43:41.822Z,12.56
2019-05-02T00:46:11.231Z,12.30
2019-05-02T00:48:42.233Z,12.38
2019-05-02T00:51:11.614Z,12.34
2019-05-02T00:53:44.474Z,12.35
2019-05-02T00:56:12.148Z,12.42
2019-05-02T00:58:41.528Z,12.42
2019-05-02T01:01:15.378Z,12.37
2019-05-02T01:03:47.179Z,13.91
2019-05-02T01:06:17.550Z,12.74
2019-05-02T01:08:46.956Z,12.52
2019-05-02T01:11:16.404Z,12.16
2019-05-02T01:13:45.776Z,12.29
2019-05-02T01:16:18.774Z,12.33
2019-05-02T01:18:46.383Z,12.21
2019-05-02T01:21:15.844Z,12.11
2019-05-02T01:23:45.227Z,11.86
2019-05-02T01:26:14.692Z,11.87
2019-05-02T01:28:49.178Z,11.94
2019-05-02T01:31:20.244Z,11.90
2019-05-02T01:33:54.630Z,11.54
2019-05-02T01:36:36.770Z,11.46
2019-05-02T01:39:08.788Z,11.52
2019-05-02T01:41:38.262Z,11.86
2019-05-02T01:44:08.700Z,11.87
2019-05-02T01:46:38.148Z,11.53
2019-05-02T01:49:07.536Z,11.41
2019-05-02T01:51:37.090Z,11.28
2019-05-02T01:54:10.195Z,11.44
2019-05-02T01:56:40.151Z,11.36
2019-05-02T01:59:09.554Z,11.31
2019-05-02T02:01:38.935Z,10.99
2019-05-02T02:04:08.508Z,10.92
2019-05-02T02:06:38.872Z,11.11
2019-05-02T02:09:09.879Z,11.09
2019-05-02T02:11:39.470Z,11.12
2019-05-02T02:14:12.878Z,11.23
2019-05-02T02:16:40.549Z,11.40
2019-05-02T02:19:11.660Z,10.92
2019-05-02T02:21:45.613Z,10.70
2019-05-02T02:24:21.107Z,10.67
2019-05-02T02:26:49.912Z,10.79
2019-05-02T02:29:19.330Z,10.68
2019-05-02T02:31:48.855Z,10.33
2019-05-02T02:34:21.328Z,11.69
2019-05-02T02:36:50.528Z,10.73
2019-05-02T02:39:20.051Z,10.62
2019-05-02T02:41:52.225Z,10.37
2019-05-02T02:44:33.712Z,10.32
2019-05-02T02:47:02.123Z,10.15
2019-05-02T02:49:31.487Z,10.24
2019-05-02T02:52:04.929Z,9.93
2019-05-02T02:54:36.617Z,9.63
2019-05-02T02:57:03.301Z,9.68
2019-05-02T02:59:33.642Z,9.45
2019-05-02T03:02:10.206Z,9.36
2019-05-02T03:04:34.336Z,9.36
2019-05-02T03:07:03.788Z,9.20
2019-05-02T03:09:33.204Z,9.00
2019-05-02T03:12:22.612Z,9.09
2019-05-02T03:14:56.890Z,8.69
2019-05-02T03:17:28.849Z,8.72
2019-05-02T03:20:00.980Z,9.00
2019-05-02T03:22:34.941Z,8.90
2019-05-02T03:25:02.224Z,9.08
2019-05-02T03:27:37.104Z,9.23
2019-05-02T03:30:03.653Z,9.08
2019-05-02T03:32:36.216Z,9.04
2019-05-02T03:35:05.757Z,9.25
2019-05-02T03:37:35.222Z,9.06
2019-05-02T03:40:05.547Z,9.13
2019-05-02T03:42:43.886Z,9.25
2019-05-02T03:45:06.218Z,9.22
2019-05-02T03:47:36.990Z,9.19
2019-05-02T03:50:09.426Z,8.95
2019-05-02T03:52:44.001Z,8.82
2019-05-02T03:55:09.298Z,8.74
2019-05-02T03:57:41.914Z,8.71
2019-05-02T04:00:13.628Z,8.77
2019-05-02T04:02:41.367Z,8.67
2019-05-02T04:05:11.682Z,8.45
2019-05-02T04:07:42.392Z,8.57
2019-05-02T04:10:13.546Z,8.56
2019-05-02T04:12:43.764Z,8.48
2019-05-02T04:15:13.377Z,8.72
2019-05-02T04:17:43.097Z,8.58
2019-05-02T04:20:12.913Z,8.82
2019-05-02T04:22:49.113Z,9.02
2019-05-02T04:25:15.315Z,8.83
2019-05-02T04:27:44.824Z,8.66
2019-05-02T04:30:14.566Z,8.79
2019-05-02T04:32:49.571Z,8.64
2019-05-02T04:35:16.075Z,8.69
2019-05-02T04:37:45.540Z,8.63
2019-05-02T04:40:17.976Z,8.82
2019-05-02T04:42:51.188Z,8.97
2019-05-02T04:45:28.464Z,9.21
2019-05-02T04:47:54.574Z,9.46
2019-05-02T04:50:24.957Z,9.41
2019-05-02T04:52:53.934Z,9.60
2019-05-02T04:55:28.990Z,9.66
2019-05-02T04:57:52.676Z,9.90
2019-05-02T05:00:28.929Z,10.28
2019-05-02T05:02:58.368Z,10.43
2019-05-02T05:05:31.089Z,10.69
2019-05-02T05:07:59.151Z,10.64
2019-05-02T05:10:39.929Z,10.90
2019-05-02T05:12:59.630Z,10.89
2019-05-02T05:15:38.334Z,10.98
2019-05-02T05:18:04.476Z,11.22
2019-05-02T05:20:31.193Z,11.40
2019-05-02T05:23:00.570Z,11.39
2019-05-02T05:25:31.640Z,11.72
2019-05-02T05:28:05.664Z,12.43
2019-05-02T05:30:39.588Z,12.10
2019-05-02T05:33:04.319Z,12.20
2019-05-02T05:35:33.712Z,12.39
2019-05-02T05:38:03.241Z,12.36
2019-05-02T05:40:33.276Z,12.36
2019-05-02T05:43:12.125Z,13.04
2019-05-02T05:45:47.401Z,13.01
2019-05-02T05:48:05.450Z,13.26
2019-05-02T05:50:37.706Z,13.45
2019-05-02T05:53:07.514Z,12.91
2019-05-02T05:55:38.310Z,13.25
2019-05-02T05:58:15.357Z,13.79
2019-05-02T06:00:39.222Z,13.79
2019-05-02T06:03:13.713Z,13.77
2019-05-02T06:05:41.189Z,13.70
2019-05-02T06:08:13.822Z,13.59
2019-05-02T06:10:43.867Z,13.98
2019-05-02T06:13:13.067Z,14.55
2019-05-02T06:15:42.521Z,14.95
2019-05-02T06:18:11.912Z,14.98
2019-05-02T06:20:41.311Z,15.69
2019-05-02T06:23:10.697Z,14.57
2019-05-02T06:25:42.541Z,15.14
2019-05-02T06:28:11.246Z,15.89
2019-05-02T06:30:40.644Z,16.14
2019-05-02T06:33:10.121Z,16.94
2019-05-02T06:35:39.503Z,18.39
2019-05-02T06:38:08.900Z,16.90
2019-05-02T06:40:44.154Z,17.49
2019-05-02T06:43:11.427Z,17.44
2019-05-02T06:45:41.812Z,17.09
2019-05-02T06:48:16.807Z,16.08
2019-05-02T06:50:42.487Z,17.41
2019-05-02T06:53:11.881Z,18.47
2019-05-02T06:55:41.334Z,18.75
2019-05-02T06:58:10.720Z,18.15
2019-05-02T07:00:56.675Z,19.20
2019-05-02T07:03:12.332Z,19.54
2019-05-02T07:05:41.800Z,20.03
2019-05-02T07:08:13.558Z,18.42
2019-05-02T07:10:44.816Z,18.28
2019-05-02T07:13:15.194Z,18.61
2019-05-02T07:15:48.455Z,19.40
2019-05-02T07:18:37.523Z,18.89
2019-05-02T07:21:07.649Z,18.55
2019-05-02T07:23:37.040Z,18.37
2019-05-02T07:26:06.516Z,19.41
2019-05-02T07:28:40.223Z,19.49
2019-05-02T07:31:11.993Z,18.76
2019-05-02T07:33:38.815Z,19.38
2019-05-02T07:36:08.235Z,19.56
2019-05-02T07:38:37.772Z,18.90
2019-05-02T07:41:08.198Z,19.65
2019-05-02T07:43:37.608Z,19.87
2019-05-02T07:46:07.056Z,20.61
2019-05-02T07:48:37.418Z,20.33
2019-05-02T07:51:06.880Z,20.60
2019-05-02T07:53:36.272Z,20.60
2019-05-02T07:56:06.690Z,20.35
2019-05-02T07:58:38.507Z,20.64
2019-05-02T08:01:08.149Z,21.55
2019-05-02T08:03:38.254Z,21.73
2019-05-02T08:06:07.733Z,21.59
2019-05-02T08:08:37.110Z,22.20
2019-05-02T08:11:06.743Z,22.35
2019-05-02T08:13:36.131Z,21.62
2019-05-02T08:16:05.708Z,22.24
2019-05-02T08:18:35.623Z,22.69
2019-05-02T08:21:05.729Z,21.88
2019-05-02T08:23:35.595Z,23.24
2019-05-02T08:26:06.027Z,23.24
2019-05-02T08:28:39.923Z,23.63
2019-05-02T08:31:13.481Z,24.08
2019-05-02T08:33:40.532Z,23.69
2019-05-02T08:36:09.981Z,24.26
2019-05-02T08:38:39.456Z,24.37
2019-05-02T08:41:08.901Z,23.79
2019-05-02T08:43:40.096Z,24.02
2019-05-02T08:46:14.356Z,23.41
2019-05-02T08:48:42.240Z,23.89
2019-05-02T08:51:11.951Z,24.53
2019-05-02T08:53:41.340Z,24.52
2019-05-02T08:56:10.728Z,23.94
2019-05-02T08:58:44.892Z,24.87
2019-05-02T09:01:13.796Z,24.66
2019-05-02T09:03:55.442Z,24.35
2019-05-02T09:06:17.245Z,23.94
2019-05-02T09:08:46.107Z,24.16
2019-05-02T09:11:16.670Z,23.41
2019-05-02T09:13:46.199Z,24.15
2019-05-02T09:16:15.543Z,23.90
2019-05-02T09:18:50.940Z,23.35
2019-05-02T09:21:16.012Z,24.07
2019-05-02T09:23:45.402Z,23.27
2019-05-02T09:26:14.852Z,22.85
2019-05-02T09:28:44.251Z,24.44
2019-05-02T09:31:15.273Z,23.63
2019-05-02T09:33:46.789Z,24.61
2019-05-02T09:36:15.759Z,25.49
2019-05-02T09:38:48.773Z,24.89
2019-05-02T09:41:19.347Z,24.24
2019-05-02T09:43:47.374Z,24.65
2019-05-02T09:46:16.831Z,23.94
2019-05-02T09:48:46.286Z,23.86
2019-05-02T09:51:17.473Z,24.82
2019-05-02T09:53:46.758Z,24.90
2019-05-02T09:56:16.148Z,24.69
2019-05-02T09:58:49.068Z,25.19
2019-05-02T10:01:18.220Z,24.89
2019-05-02T10:03:47.821Z,24.57
2019-05-02T10:06:18.327Z,24.60
2019-05-02T10:08:47.850Z,24.33
2019-05-02T10:11:22.560Z,25.63
2019-05-02T10:13:48.390Z,26.99
2019-05-02T10:16:22.724Z,26.37
2019-05-02T10:18:48.997Z,25.74
2019-05-02T10:21:18.467Z,27.50
2019-05-02T10:23:51.838Z,26.72
2019-05-02T10:26:20.190Z,26.01
2019-05-02T10:28:51.206Z,26.91
2019-05-02T10:31:21.894Z,25.63
2019-05-02T10:33:52.915Z,25.64
2019-05-02T10:36:23.974Z,27.10
2019-05-02T10:38:59.091Z,27.90
2019-05-02T10:41:25.566Z,27.62
2019-05-02T10:43:57.680Z,27.75
2019-05-02T10:46:32.152Z,26.36
2019-05-02T10:49:01.983Z,26.93
2019-05-02T10:51:35.324Z,27.59
2019-05-02T10:54:05.953Z,26.94
2019-05-02T10:56:35.783Z,26.77
2019-05-02T10:59:05.432Z,28.30
2019-05-02T11:01:42.639Z,28.54
2019-05-02T11:04:13.670Z,28.69
2019-05-02T11:06:46.291Z,27.66
2019-05-02T11:09:16.833Z,27.57
2019-05-02T11:11:45.452Z,28.45
2019-05-02T11:14:25.188Z,28.01
2019-05-02T11:16:59.037Z,27.60
2019-05-02T11:19:35.794Z,28.20
2019-05-02T11:22:05.410Z,27.57
2019-05-02T11:24:34.873Z,27.14
2019-05-02T11:27:04.606Z,27.36
2019-05-02T11:29:33.987Z,27.62
2019-05-02T11:32:03.640Z,27.10
2019-05-02T11:34:33.035Z,27.49
2019-05-02T11:37:02.440Z,27.18
2019-05-02T11:39:42.607Z,27.97
2019-05-02T11:42:02.929Z,28.14
2019-05-02T11:44:32.738Z,28.84
2019-05-02T11:47:02.372Z,28.76
2019-05-02T11:49:32.123Z,28.50
2019-05-02T11:52:04.542Z,28.61
2019-05-02T11:54:32.095Z,29.70
2019-05-02T11:57:02.194Z,29.52
2019-05-02T11:59:32.053Z,29.29
2019-05-02T12:02:09.494Z,28.18
2019-05-02T12:04:36.941Z,28.46
2019-05-02T12:07:06.348Z,28.31
2019-05-02T12:09:35.725Z,28.91
2019-05-02T12:12:05.254Z,27.67
2019-05-02T12:14:36.324Z,28.81
2019-05-02T12:17:06.049Z,27.90
2019-05-02T12:19:35.554Z,29.05
2019-05-02T12:22:07.248Z,29.33
2019-05-02T12:24:36.365Z,29.16
2019-05-02T12:27:06.521Z,28.13
2019-05-02T12:29:35.919Z,27.79
2019-05-02T12:32:16.087Z,27.48
2019-05-02T12:34:45.548Z,28.29
2019-05-02T12:37:14.998Z,27.34
2019-05-02T12:39:44.384Z,26.90
2019-05-02T12:42:14.182Z,26.98
2019-05-02T12:44:43.745Z,27.19
2019-05-02T12:47:13.207Z,28.57
2019-05-02T12:49:42.676Z,26.93
2019-05-02T12:52:12.918Z,27.21
2019-05-02T12:54:42.358Z,27.43
2019-05-02T12:57:12.490Z,27.10
2019-05-02T12:59:42.879Z,27.10
2019-05-02T13:02:13.903Z,26.77
2019-05-02T13:04:43.306Z,26.94
2019-05-02T13:07:12.880Z,26.62
2019-05-02T13:09:43.284Z,26.91
2019-05-02T13:12:14.473Z,27.06
2019-05-02T13:14:43.873Z,27.18
2019-05-02T13:17:13.567Z,27.00
2019-05-02T13:19:55.816Z,27.29
2019-05-02T13:22:32.496Z,26.50
2019-05-02T13:25:04.694Z,26.04
2019-05-02T13:27:43.515Z,25.92
2019-05-02T13:30:09.009Z,26.04
2019-05-02T13:32:40.124Z,27.03
2019-05-02T13:35:13.577Z,26.89
2019-05-02T13:37:43.620Z,27.67
2019-05-02T13:40:17.122Z,26.66
2019-05-02T13:42:46.370Z,26.93
2019-05-02T13:45:33.901Z,26.57
2019-05-02T13:48:03.388Z,27.50
2019-05-02T13:50:32.908Z,27.58
2019-05-02T13:53:02.795Z,27.83
2019-05-02T13:55:33.936Z,28.92
2019-05-02T13:58:03.399Z,28.31
2019-05-02T14:00:43.622Z,27.89
2019-05-02T14:03:13.436Z,27.64
2019-05-02T14:05:49.166Z,27.14
2019-05-02T14:08:18.994Z,26.78
2019-05-02T14:10:50.039Z,26.83
2019-05-02T14:13:19.420Z,26.34
2019-05-02T14:15:48.891Z,26.18
2019-05-02T14:18:21.894Z,26.86
2019-05-02T14:20:49.375Z,26.71
2019-05-02T14:23:18.842Z,27.28
2019-05-02T14:25:48.232Z,26.60
2019-05-02T14:28:17.615Z,27.19
2019-05-02T14:30:47.004Z,26.84
2019-05-02T14:33:23.058Z,26.93
2019-05-02T14:35:52.690Z,26.19
2019-05-02T14:38:22.215Z,26.58
2019-05-02T14:40:55.978Z,26.34
2019-05-02T14:43:46.669Z,25.98
2019-05-02T14:46:17.438Z,25.65
2019-05-02T14:48:45.982Z,26.12
2019-05-02T14:51:16.835Z,25.85
2019-05-02T14:53:47.228Z,25.63
2019-05-02T14:56:24.046Z,25.53
2019-05-02T14:58:53.501Z,25.35
2019-05-02T15:01:26.124Z,25.62
2019-05-02T15:03:58.414Z,26.07
2019-05-02T15:06:25.186Z,26.02
2019-05-02T15:08:54.582Z,26.08
2019-05-02T15:11:30.752Z,26.94
2019-05-02T15:13:54.705Z,26.53
2019-05-02T15:16:33.320Z,26.24
2019-05-02T15:18:57.089Z,25.69
2019-05-02T15:21:28.163Z,25.25
2019-05-02T15:23:58.000Z,25.46
2019-05-02T15:26:31.258Z,25.52
2019-05-02T15:28:58.512Z,25.99
2019-05-02T15:31:32.379Z,24.90
2019-05-02T15:34:05.088Z,24.15
2019-05-02T15:36:37.071Z,25.25
2019-05-02T15:41:40.023Z,24.41
2019-05-02T15:44:09.450Z,24.88
2019-05-02T15:46:40.244Z,24.43
2019-05-02T15:49:09.708Z,25.21
2019-05-02T15:51:43.674Z,24.92
2019-05-02T15:54:12.489Z,24.41
2019-05-02T15:57:00.083Z,24.24
2019-05-02T15:59:37.611Z,24.71
2019-05-02T16:02:07.103Z,24.30
2019-05-02T16:04:41.743Z,23.96
2019-05-02T16:07:12.124Z,23.74
2019-05-02T16:09:41.916Z,23.69
2019-05-02T16:12:12.248Z,23.29
2019-05-02T16:14:42.574Z,23.30
2019-05-02T16:17:12.599Z,23.24
2019-05-02T16:19:44.909Z,23.78
2019-05-02T16:22:18.622Z,23.03
2019-05-02T16:24:50.748Z,22.95
2019-05-02T16:27:23.774Z,22.91
2019-05-02T16:29:50.515Z,22.77
2019-05-02T16:32:22.087Z,23.10
2019-05-02T16:34:54.924Z,22.80
2019-05-02T16:37:24.777Z,22.77
2019-05-02T16:39:54.242Z,22.65
2019-05-02T16:42:23.625Z,23.03
2019-05-02T16:44:54.820Z,22.74
2019-05-02T16:47:24.324Z,22.76
2019-05-02T16:49:56.429Z,22.47
2019-05-02T16:52:24.889Z,22.47
2019-05-02T16:54:54.278Z,22.92
2019-05-02T16:57:23.853Z,22.61
2019-05-02T17:00:00.723Z,22.38
2019-05-02T17:02:24.407Z,22.22
2019-05-02T17:04:54.599Z,22.32
2019-05-02T17:07:25.800Z,22.16
2019-05-02T17:10:02.896Z,22.09
2019-05-02T17:12:32.416Z,22.06
2019-05-02T17:15:19.171Z,21.91
2019-05-02T17:17:58.097Z,22.08
2019-05-02T17:20:27.627Z,21.96
2019-05-02T17:23:02.237Z,21.82
2019-05-02T17:25:28.151Z,21.87
2019-05-02T17:28:03.939Z,21.80
2019-05-02T17:30:33.312Z,21.90
2019-05-02T17:33:01.761Z,21.91
2019-05-02T17:35:32.581Z,21.74
2019-05-02T17:38:02.671Z,21.40
2019-05-02T17:40:32.132Z,21.31
2019-05-02T17:43:05.503Z,21.27
2019-05-02T17:45:33.309Z,20.99
2019-05-02T17:48:10.316Z,20.86
2019-05-02T17:50:49.522Z,20.46
2019-05-02T17:53:22.413Z,20.46
2019-05-02T17:55:52.548Z,20.11
2019-05-02T17:58:21.967Z,19.88
2019-05-02T18:00:57.005Z,19.74
2019-05-02T18:03:31.242Z,19.44
2019-05-02T18:05:55.606Z,19.31
2019-05-02T18:08:27.039Z,19.44
2019-05-02T18:11:00.130Z,18.86
2019-05-02T18:13:29.227Z,18.86
2019-05-02T18:15:58.324Z,18.76
2019-05-02T18:18:27.814Z,18.89
2019-05-02T18:20:57.218Z,18.86
2019-05-02T18:23:27.723Z,18.71
2019-05-02T18:26:01.520Z,18.53
2019-05-02T18:28:28.297Z,18.31
2019-05-02T18:31:03.608Z,17.97
2019-05-02T18:33:28.781Z,17.69
2019-05-02T18:35:58.501Z,17.90
2019-05-02T18:38:27.885Z,17.29
2019-05-02T18:41:00.281Z,17.52
2019-05-02T18:43:31.441Z,17.40
2019-05-02T18:46:05.967Z,17.43
2019-05-02T18:48:31.919Z,17.44
2019-05-02T18:51:01.700Z,17.39
2019-05-02T18:53:32.720Z,16.73
2019-05-02T18:56:03.627Z,16.73
2019-05-02T18:58:36.379Z,16.59
2019-05-02T19:01:08.373Z,16.56
2019-05-02T19:03:35.891Z,16.67
2019-05-02T19:06:06.257Z,16.47
2019-05-02T19:08:45.672Z,16.64
2019-05-02T19:11:12.192Z,16.42
2019-05-02T19:13:42.721Z,16.60
2019-05-02T19:16:12.976Z,16.54
2019-05-02T19:18:42.735Z,16.36
2019-05-02T19:21:13.307Z,16.36
2019-05-02T19:23:42.790Z,16.35
2019-05-02T19:26:14.992Z,16.39
2019-05-02T19:28:47.648Z,16.43
2019-05-02T19:31:18.032Z,16.44
2019-05-02T19:33:47.794Z,16.23
2019-05-02T19:36:24.356Z,16.16
2019-05-02T19:38:48.652Z,16.01
2019-05-02T19:41:18.305Z,15.82
2019-05-02T19:43:49.736Z,15.84
2019-05-02T19:46:26.054Z,15.72
2019-05-02T19:48:50.006Z,15.88
2019-05-02T19:51:20.250Z,15.82
2019-05-02T19:53:51.653Z,15.62
2019-05-02T19:56:21.990Z,15.82
2019-05-02T19:58:52.220Z,15.38
2019-05-02T20:01:23.066Z,15.16
2019-05-02T20:03:56.736Z,15.16
2019-05-02T20:06:25.015Z,15.39
2019-05-02T20:08:59.219Z,15.57
2019-05-02T20:11:28.036Z,14.80
2019-05-02T20:14:00.508Z,14.69
2019-05-02T20:16:36.585Z,14.71
2019-05-02T20:19:03.878Z,15.17
2019-05-02T20:21:34.986Z,14.58
2019-05-02T20:24:09.097Z,15.64
2019-05-02T20:26:35.199Z,15.11
2019-05-02T20:29:04.593Z,14.89
2019-05-02T20:31:33.971Z,14.79
2019-05-02T20:34:03.593Z,15.24
2019-05-02T20:36:33.052Z,14.96
2019-05-02T20:39:02.486Z,14.75
2019-05-02T20:41:33.517Z,14.82
2019-05-02T20:44:02.911Z,15.53
2019-05-02T20:46:32.629Z,15.13
2019-05-02T20:49:02.294Z,14.71
2019-05-02T20:51:32.015Z,14.78
2019-05-02T20:54:02.119Z,14.65
2019-05-02T20:56:32.077Z,15.55
2019-05-02T20:59:01.990Z,15.07
2019-05-02T21:01:32.198Z,14.96
2019-05-02T21:04:02.741Z,15.64
2019-05-02T21:06:40.929Z,15.35
2019-05-02T21:09:15.659Z,15.38
2019-05-02T21:11:49.838Z,15.95
2019-05-02T21:14:19.227Z,16.40
2019-05-02T21:16:48.700Z,16.50
2019-05-02T21:19:18.234Z,16.95
2019-05-02T21:21:48.472Z,16.87
2019-05-02T21:24:18.355Z,17.16
2019-05-02T21:26:48.406Z,16.87
2019-05-02T21:29:18.328Z,16.78
2019-05-02T21:31:48.355Z,17.34
2019-05-02T21:34:18.429Z,17.12
2019-05-02T21:36:48.469Z,16.86
2019-05-02T21:39:18.535Z,17.23
2019-05-02T21:41:48.970Z,17.15
2019-05-02T21:44:18.594Z,17.58
2019-05-02T21:46:47.999Z,16.96
2019-05-02T21:49:19.010Z,16.89
2019-05-02T21:51:56.606Z,17.13
2019-05-02T21:54:27.626Z,17.22
2019-05-02T21:56:59.009Z,17.26
2019-05-02T21:59:28.461Z,17.13
2019-05-02T22:01:59.767Z,17.27
2019-05-02T22:04:29.313Z,16.86
2019-05-02T22:06:58.760Z,17.03
2019-05-02T22:09:28.150Z,17.13
2019-05-02T22:11:57.538Z,17.05
2019-05-02T22:14:26.918Z,17.17
2019-05-02T22:16:56.307Z,17.29
2019-05-02T22:19:25.714Z,16.91
2019-05-02T22:21:55.091Z,17.83
2019-05-02T22:24:24.470Z,16.99
2019-05-02T22:26:54.179Z,16.97
2019-05-02T22:29:23.539Z,16.93
2019-05-02T22:31:54.533Z,17.02
2019-05-02T22:34:24.065Z,17.00
2019-05-02T22:36:54.325Z,16.90
2019-05-02T22:39:26.431Z,16.86
2019-05-02T22:41:56.079Z,16.94
2019-05-02T22:44:25.471Z,16.75
2019-05-02T22:46:54.865Z,16.76
2019-05-02T22:49:24.249Z,17.06
2019-05-02T22:51:53.785Z,16.96
2019-05-02T22:54:27.778Z,16.99
2019-05-02T22:56:54.398Z,16.99
2019-05-02T22:59:24.078Z,16.86
2019-05-02T23:01:53.490Z,16.89
2019-05-02T23:04:23.595Z,16.96
2019-05-02T23:06:53.137Z,17.42
2019-05-02T23:09:22.593Z,17.15
2019-05-02T23:11:52.119Z,17.17
2019-05-02T23:14:22.143Z,16.91
2019-05-02T23:16:52.893Z,17.19
2019-05-02T23:19:23.089Z,17.80
2019-05-02T23:21:52.863Z,17.08
2019-05-02T23:24:36.268Z,17.04
2019-05-02T23:27:02.740Z,17.28
2019-05-02T23:29:32.133Z,17.42
2019-05-02T23:32:02.380Z,17.52
2019-05-02T23:34:32.357Z,17.11
2019-05-02T23:37:02.603Z,17.11
2019-05-02T23:39:32.361Z,17.17
2019-05-02T23:42:02.071Z,17.19
2019-05-02T23:44:31.490Z,17.14
2019-05-02T23:47:02.332Z,17.46
2019-05-02T23:49:32.449Z,17.49
2019-05-02T23:52:02.851Z,17.29
2019-05-02T23:54:32.500Z,17.12
2019-05-02T23:57:01.899Z,17.23
2019-05-02T23:59:31.814Z,17.21
